KMWC/MWC METAR and TAF weather

Enter ICAO airport designator
Station Type Date Time Source
KMWC METAR 2019/10/23 02:15 UTC NOAA

KMWC 230215Z AUTO 24013G20KT 10SM OVC043 08/01 A2967 RMK AO2


Station Type Date Time Source
KMWC Decoded METAR 2019/10/23 02:15 UTC NOAA

Milwaukee / Timmerman, WI, United States (KMWC) 43-07N 088-02W
Oct 22, 2019 - 10:15 PM EDT / 2019.10.23 0215 UTC
Wind: from the WSW (240 degrees) at 15 MPH (13 KT) gusting to 23 MPH (20 KT):0
Visibility: 10 mile(s):0
Sky conditions: overcast
Temperature: 46 F (8 C)
Dew Point: 33 F (1 C)
Relative Humidity: 61%
Pressure (altimeter): 29.67 in. Hg (1004 hPa)
ob: KMWC 230215Z AUTO 24013G20KT 10SM OVC043 08/01 A2967 RMK AO2
cycle: 2

Station Type Date Time Source
KMWC TAF UTC NOAA

Error!

Example: see airport list